Time;durP1;ratioP1;P1;durP2;ratioP2;P2;SDS_P1;SDS_P2;PMS_P1;PMS_P2;Temp;Humidity;BMP_temperature;BMP_pressure;BME280_temperature;BME280_humidity;BME280_pressure;Samples;Min_cycle;Max_cycle;Signal;HPM_P1;HPM_P2
2022/12/01 00:01:45;;;;;;;8.85;7.65;;;17.00;60.40;;;;;;5052734;28;20186;-69
2022/12/01 00:04:11;;;;;;;9.05;7.57;;;17.00;60.40;;;;;;5052239;28;20174;-70
2022/12/01 00:06:36;;;;;;;10.88;8.57;;;16.90;60.40;;;;;;5052205;28;20654;-70
2022/12/01 00:11:46;;;;;;;9.32;8.07;;;16.90;60.50;;;;;;5051863;28;20742;-69
2022/12/01 00:14:12;;;;;;;9.13;7.72;;;16.90;60.50;;;;;;5052915;28;20179;-69
2022/12/01 00:16:39;;;;;;;12.10;8.93;;;16.90;60.50;;;;;;5052577;28;20179;-69
2022/12/01 00:19:04;;;;;;;8.02;7.18;;;16.80;60.50;;;;;;5051849;28;20230;-70
2022/12/01 00:21:30;;;;;;;10.10;8.50;;;16.80;60.60;;;;;;5053006;28;20179;-69
2022/12/01 00:23:56;;;;;;;11.00;8.45;;;16.80;60.70;;;;;;5051885;28;20172;-69
2022/12/01 00:26:22;;;;;;;9.73;8.27;;;16.80;60.60;;;;;;5052768;28;20183;-69
2022/12/01 00:28:51;;;;;;;9.88;8.65;;;16.80;60.70;;;;;;5052490;28;20268;-70
2022/12/01 00:31:17;;;;;;;10.02;8.75;;;16.80;60.70;;;;;;5051890;28;20309;-70
2022/12/01 00:33:42;;;;;;;9.45;8.45;;;16.70;60.70;;;;;;5052332;28;20305;-70
2022/12/01 00:36:08;;;;;;;8.65;7.80;;;16.70;60.80;;;;;;5052346;28;20179;-70
2022/12/01 00:38:33;;;;;;;9.77;8.82;;;16.80;60.80;;;;;;5051635;28;20658;-70
2022/12/01 00:40:59;;;;;;;8.90;8.00;;;16.70;60.90;;;;;;5052777;28;20166;-69
2022/12/01 00:43:24;;;;;;;11.65;9.38;;;16.70;60.90;;;;;;5052628;28;20645;-69
2022/12/01 00:45:50;;;;;;;9.90;8.32;;;16.70;60.90;;;;;;5051670;28;20689;-71
2022/12/01 00:48:16;;;;;;;9.82;8.73;;;16.70;60.90;;;;;;5052587;28;20270;-69
2022/12/01 00:50:41;;;;;;;9.45;8.38;;;16.70;60.90;;;;;;5052090;28;20720;-69
2022/12/01 00:53:07;;;;;;;10.80;8.88;;;16.70;60.90;;;;;;5034077;28;20175;-69
2022/12/01 00:55:33;;;;;;;10.48;8.50;;;16.60;61.70;;;;;;5052357;28;20175;-69
2022/12/01 00:57:58;;;;;;;11.75;10.55;;;16.60;61.00;;;;;;5051881;28;20629;-69
2022/12/01 01:00:24;;;;;;;9.50;8.50;;;16.60;61.00;;;;;;5051460;28;20175;-69
2022/12/01 01:02:49;;;;;;;10.32;8.88;;;16.60;61.00;;;;;;5051989;28;20171;-69
2022/12/01 01:05:15;;;;;;;9.57;8.25;;;16.60;61.10;;;;;;5052455;28;20175;-69
2022/12/01 01:07:40;;;;;;;10.65;9.20;;;16.60;61.10;;;;;;5051646;28;20167;-70
2022/12/01 01:10:06;;;;;;;9.25;8.25;;;16.60;61.10;;;;;;5052200;28;20266;-69
2022/12/01 01:12:32;;;;;;;10.82;9.45;;;16.60;61.20;;;;;;5051631;28;20215;-69
2022/12/01 01:14:57;;;;;;;10.57;9.00;;;16.50;61.10;;;;;;5051465;28;20198;-69
2022/12/01 01:17:23;;;;;;;10.48;9.02;;;16.50;61.10;;;;;;5052126;28;20258;-68
2022/12/01 01:19:48;;;;;;;10.30;8.88;;;16.50;61.90;;;;;;5054806;28;20621;-70
2022/12/01 01:22:14;;;;;;;11.13;8.95;;;16.50;61.20;;;;;;5055019;28;20713;-69
2022/12/01 01:24:39;;;;;;;10.13;9.00;;;16.50;61.10;;;;;;5055571;28;20178;-70
2022/12/01 01:27:05;;;;;;;10.02;8.57;;;16.40;61.10;;;;;;5055339;28;20533;-70
2022/12/01 01:29:31;;;;;;;11.57;9.75;;;16.40;61.20;;;;;;5055471;28;20253;-70
2022/12/01 01:31:56;;;;;;;10.02;8.95;;;16.50;61.30;;;;;;5055453;28;20222;-70
2022/12/01 01:34:22;;;;;;;9.77;8.43;;;16.50;61.40;;;;;;5055329;28;20179;-69
2022/12/01 01:36:47;;;;;;;12.02;9.88;;;16.40;61.30;;;;;;5055415;28;20739;-70
2022/12/01 01:39:13;;;;;;;10.02;8.95;;;16.40;61.30;;;;;;5055395;28;20562;-70
2022/12/01 01:41:38;;;;;;;10.95;9.30;;;16.40;61.30;;;;;;5054589;28;20232;-69
2022/12/01 01:44:42;;;;;;;10.73;9.07;;;16.40;61.40;;;;;;5055526;28;20225;-69
2022/12/01 01:47:08;;;;;;;10.27;9.25;;;16.40;61.40;;;;;;5055574;28;20182;-69
2022/12/01 01:49:33;;;;;;;10.82;9.73;;;16.40;61.30;;;;;;5053244;28;20171;-69
2022/12/01 01:51:59;;;;;;;10.43;9.43;;;16.40;61.40;;;;;;5055192;28;20673;-69
2022/12/01 01:54:36;;;;;;;12.02;9.68;;;16.40;61.40;;;;;;5054296;28;20171;-68
2022/12/01 01:57:01;;;;;;;10.95;9.68;;;16.30;61.40;;;;;;5037813;28;20171;-69
2022/12/01 01:59:32;;;;;;;12.57;9.75;;;16.30;61.40;;;;;;5054247;28;20167;-68
2022/12/01 02:02:15;;;;;;;10.82;9.13;;;16.30;61.50;;;;;;5055335;28;20187;-69
2022/12/01 02:04:44;;;;;;;10.68;9.57;;;16.30;61.60;;;;;;5054794;28;20163;-70
2022/12/01 02:07:10;;;;;;;10.18;8.88;;;16.30;61.50;;;;;;5054012;28;20182;-69
2022/12/01 02:09:36;;;;;;;11.48;9.90;;;16.30;61.40;;;;;;5053940;28;20207;-69
2022/12/01 02:12:29;;;;;;;11.15;9.57;;;16.30;61.40;;;;;;5055147;28;20241;-69
2022/12/01 02:15:17;;;;;;;10.63;9.18;;;16.30;61.50;;;;;;5053607;28;20175;-68
2022/12/01 02:17:47;;;;;;;10.77;9.73;;;16.30;61.60;;;;;;5052464;28;20677;-68
2022/12/01 02:20:32;;;;;;;9.73;8.73;;;16.30;61.70;;;;;;5053819;28;20190;-68
2022/12/01 02:23:34;;;;;;;11.18;9.82;;;16.20;61.60;;;;;;5053916;28;20171;-68
2022/12/01 02:26:06;;;;;;;12.93;11.10;;;16.20;61.60;;;;;;5054761;28;20174;-69
2022/12/01 02:29:09;;;;;;;11.52;9.93;;;16.20;61.60;;;;;;5054622;28;20168;-69
2022/12/01 02:32:23;;;;;;;11.93;10.30;;;16.20;61.60;;;;;;5053524;28;20217;-69
2022/12/01 02:35:07;;;;;;;12.07;10.30;;;16.20;61.70;;;;;;5034641;28;20634;-69
2022/12/01 02:38:11;;;;;;;11.32;9.73;;;16.20;61.70;;;;;;5053686;28;20171;-69
2022/12/01 02:40:48;;;;;;;11.98;9.80;;;16.20;61.60;;;;;;5054103;28;20171;-70
2022/12/01 02:43:28;;;;;;;12.18;10.88;;;16.20;61.80;;;;;;5053418;28;20183;-69
2022/12/01 02:45:58;;;;;;;10.98;9.63;;;16.20;61.80;;;;;;5053526;28;20206;-68
2022/12/01 02:48:34;;;;;;;11.32;9.82;;;16.20;61.70;;;;;;5053555;28;20179;-68
2022/12/01 02:51:06;;;;;;;11.02;9.80;;;16.20;61.80;;;;;;5054257;28;20230;-69
2022/12/01 02:53:31;;;;;;;11.68;10.27;;;16.20;61.80;;;;;;5036563;28;20237;-69
2022/12/01 02:55:57;;;;;;;12.40;9.95;;;16.20;61.80;;;;;;5054268;28;20171;-68
2022/12/01 02:58:23;;;;;;;12.35;10.20;;;16.20;61.80;;;;;;5053101;28;20261;-68
2022/12/01 03:01:10;;;;;;;10.25;9.15;;;16.10;61.80;;;;;;5053156;28;20201;-68
2022/12/01 03:04:13;;;;;;;10.85;9.63;;;16.10;61.90;;;;;;5052556;28;20600;-68
2022/12/01 03:06:44;;;;;;;12.00;10.73;;;16.10;61.90;;;;;;5052923;28;20225;-69
2022/12/01 03:09:35;;;;;;;11.80;10.60;;;16.10;61.90;;;;;;5054056;28;20171;-69
2022/12/01 03:12:04;;;;;;;11.82;9.82;;;16.10;61.90;;;;;;5042599;28;20305;-68
2022/12/01 03:14:40;;;;;;;11.38;9.88;;;16.10;61.90;;;;;;5053349;28;20250;-69
2022/12/01 03:17:07;;;;;;;12.00;9.98;;;16.10;61.90;;;;;;5052721;28;20691;-69
2022/12/01 03:19:37;;;;;;;12.52;10.68;;;16.10;61.90;;;;;;5051819;28;20231;-68
2022/12/01 03:22:18;;;;;;;11.57;9.75;;;16.10;62.00;;;;;;5053496;28;20186;-69
2022/12/01 03:24:45;;;;;;;12.93;10.80;;;16.00;62.00;;;;;;5035970;28;20171;-69
2022/12/01 03:27:11;;;;;;;12.43;10.15;;;16.10;62.10;;;;;;5051643;28;20179;-69
2022/12/01 03:29:40;;;;;;;11.35;10.13;;;16.00;62.10;;;;;;5052158;28;20190;-69
2022/12/01 03:32:33;;;;;;;12.50;10.98;;;16.00;62.00;;;;;;5052401;28;20210;-69
2022/12/01 03:35:04;;;;;;;11.32;9.70;;;16.00;62.10;;;;;;5052428;28;20184;-69
2022/12/01 03:37:49;;;;;;;12.27;10.00;;;16.00;62.10;;;;;;5052352;28;20179;-69
2022/12/01 03:40:17;;;;;;;12.43;10.05;;;16.00;62.20;;;;;;5052204;28;20190;-69
2022/12/01 03:42:45;;;;;;;11.98;10.65;;;16.00;63.00;;;;;;5050568;28;20175;-69
2022/12/01 03:45:21;;;;;;;13.38;11.15;;;16.00;62.20;;;;;;5052067;28;20183;-68
2022/12/01 03:47:46;;;;;;;12.85;10.85;;;16.00;62.20;;;;;;5051036;28;20199;-69
2022/12/01 03:50:12;;;;;;;12.15;10.18;;;16.00;62.20;;;;;;5052137;28;20217;-69
2022/12/01 03:52:53;;;;;;;12.40;10.35;;;16.00;62.30;;;;;;5052817;28;20299;-69
2022/12/01 03:55:29;;;;;;;13.45;10.88;;;15.90;62.20;;;;;;5052399;28;20185;-69
2022/12/01 03:58:13;;;;;;;12.35;10.60;;;15.90;62.30;;;;;;5051533;28;20171;-69
2022/12/01 04:00:39;;;;;;;10.77;9.68;;;16.00;62.30;;;;;;5051771;28;20183;-68
2022/12/01 04:03:04;;;;;;;11.68;10.02;;;15.90;62.30;;;;;;5034613;28;20176;-69
2022/12/01 04:05:31;;;;;;;12.73;10.82;;;15.90;62.40;;;;;;5051734;28;20171;-69
2022/12/01 04:07:57;;;;;;;13.00;10.10;;;15.90;62.30;;;;;;5053063;28;20213;-69
2022/12/01 04:10:22;;;;;;;12.02;10.63;;;15.90;62.30;;;;;;5052170;28;20199;-69
2022/12/01 04:12:48;;;;;;;13.05;10.30;;;15.90;62.40;;;;;;5052528;28;20171;-69
2022/12/01 04:15:13;;;;;;;12.40;11.15;;;15.90;62.30;;;;;;5052995;28;20266;-69
2022/12/01 04:17:42;;;;;;;12.07;10.57;;;15.90;62.50;;;;;;5051760;28;20179;-68
2022/12/01 04:20:09;;;;;;;12.50;11.02;;;15.90;62.50;;;;;;5052838;28;20618;-69
2022/12/01 04:22:36;;;;;;;12.32;10.98;;;15.90;62.50;;;;;;5052477;28;20203;-69
2022/12/01 04:25:02;;;;;;;12.70;10.73;;;15.80;62.50;;;;;;5052096;28;20511;-69
2022/12/01 04:27:27;;;;;;;11.65;10.10;;;15.80;62.60;;;;;;5052745;28;20641;-70
2022/12/01 04:29:53;;;;;;;11.23;9.70;;;15.80;62.50;;;;;;5052518;28;20222;-69
2022/12/01 04:32:18;;;;;;;11.32;10.13;;;15.80;62.50;;;;;;5052140;28;20215;-70
2022/12/01 04:34:44;;;;;;;13.35;11.38;;;15.80;62.60;;;;;;5052460;28;20202;-69
2022/12/01 04:37:10;;;;;;;13.40;10.57;;;15.80;62.50;;;;;;5051962;28;20202;-69
2022/12/01 04:39:36;;;;;;;12.98;11.07;;;15.80;62.60;;;;;;5052209;28;20551;-69
2022/12/01 04:42:02;;;;;;;13.13;10.90;;;15.80;62.60;;;;;;5052559;28;20266;-69
2022/12/01 04:44:27;;;;;;;13.75;11.27;;;15.80;62.60;;;;;;5051962;28;20198;-69
2022/12/01 04:46:53;;;;;;;12.15;10.85;;;15.80;62.60;;;;;;5052511;28;20168;-68
2022/12/01 04:49:19;;;;;;;14.35;11.30;;;15.80;62.60;;;;;;5052749;28;20175;-68
2022/12/01 04:51:44;;;;;;;13.80;11.60;;;15.80;62.60;;;;;;5051490;28;20203;-69
2022/12/01 04:54:10;;;;;;;12.40;10.55;;;15.80;62.60;;;;;;5056354;28;20179;-69
2022/12/01 04:56:36;;;;;;;12.55;10.13;;;15.80;62.70;;;;;;5056366;28;20224;-68
2022/12/01 04:59:01;;;;;;;12.20;10.48;;;15.80;62.60;;;;;;5055575;28;20171;-69
2022/12/01 05:01:27;;;;;;;13.25;10.88;;;15.80;62.60;;;;;;5056159;28;20645;-68
2022/12/01 05:03:53;;;;;;;15.55;11.68;;;15.80;62.60;;;;;;5056019;28;20171;-69
2022/12/01 05:06:21;;;;;;;12.32;11.05;;;15.70;62.60;;;;;;5055622;28;20257;-69
2022/12/01 05:08:46;;;;;;;11.20;9.98;;;15.80;62.60;;;;;;5055836;28;20312;-69
2022/12/01 05:11:12;;;;;;;11.90;10.60;;;15.70;62.60;;;;;;5056187;28;20297;-69
2022/12/01 05:13:39;;;;;;;12.93;10.77;;;15.70;62.80;;;;;;5055309;28;20175;-68
2022/12/01 05:16:08;;;;;;;12.43;11.05;;;15.70;62.80;;;;;;5056160;28;20171;-69
2022/12/01 05:18:34;;;;;;;13.88;11.38;;;15.70;62.80;;;;;;5054364;28;20729;-68
2022/12/01 05:21:00;;;;;;;14.68;11.38;;;15.70;62.80;;;;;;5055214;28;20257;-69
2022/12/01 05:23:26;;;;;;;13.70;11.50;;;15.70;62.70;;;;;;5055888;28;20317;-69
2022/12/01 05:25:52;;;;;;;12.18;10.75;;;15.70;62.70;;;;;;5055550;28;20743;-69
2022/12/01 05:28:18;;;;;;;12.98;10.93;;;15.70;62.50;;;;;;5055084;28;20190;-69
2022/12/01 05:30:43;;;;;;;12.68;10.93;;;15.70;62.60;;;;;;5055602;28;20171;-69
2022/12/01 05:33:09;;;;;;;12.10;10.65;;;15.70;62.60;;;;;;5055772;28;20175;-69
2022/12/01 05:35:34;;;;;;;11.88;10.68;;;15.70;62.60;;;;;;5054803;28;20265;-69
2022/12/01 05:38:00;;;;;;;12.63;10.95;;;15.70;62.60;;;;;;5055536;28;20202;-69
2022/12/01 05:40:25;;;;;;;13.07;11.57;;;15.60;62.50;;;;;;5055129;28;20653;-69
2022/12/01 05:42:51;;;;;;;11.43;10.23;;;15.60;63.40;;;;;;5055408;28;20292;-69
2022/12/01 05:45:16;;;;;;;12.20;10.88;;;15.60;62.70;;;;;;5055704;28;20210;-68
2022/12/01 05:47:42;;;;;;;12.20;10.52;;;15.60;62.60;;;;;;5054620;28;20685;-68
2022/12/01 05:50:08;;;;;;;12.30;10.93;;;15.60;62.60;;;;;;5055064;28;20257;-68
2022/12/01 05:52:34;;;;;;;11.45;10.00;;;15.60;62.70;;;;;;5055002;28;20218;-69
2022/12/01 05:55:00;;;;;;;13.45;11.30;;;15.60;62.60;;;;;;5054807;28;20175;-69
2022/12/01 05:57:25;;;;;;;12.35;10.80;;;15.60;62.50;;;;;;5055393;28;20183;-68
2022/12/01 05:59:51;;;;;;;14.82;11.82;;;15.60;62.60;;;;;;5055133;28;20629;-68
2022/12/01 06:02:16;;;;;;;12.98;11.63;;;15.60;62.50;;;;;;5054571;28;20229;-68
2022/12/01 06:04:42;;;;;;;12.68;11.13;;;15.60;62.50;;;;;;5054397;28;20168;-69
2022/12/01 06:07:07;;;;;;;12.98;11.18;;;15.60;62.50;;;;;;5055077;28;20186;-69
2022/12/01 06:09:33;;;;;;;13.00;11.18;;;15.60;62.50;;;;;;5054261;28;20176;-69
2022/12/01 06:11:58;;;;;;;14.30;11.90;;;15.60;62.50;;;;;;5054948;28;20581;-69
2022/12/01 06:14:24;;;;;;;13.80;11.05;;;15.70;62.10;;;;;;5055184;28;20179;-69
2022/12/01 06:16:49;;;;;;;11.32;10.02;;;15.80;61.80;;;;;;5053939;28;20175;-69
2022/12/01 06:19:15;;;;;;;11.82;10.45;;;15.90;61.80;;;;;;5054735;28;20218;-69
2022/12/01 06:21:40;;;;;;;11.93;10.55;;;16.00;61.40;;;;;;5054452;28;20171;-68
2022/12/01 06:24:06;;;;;;;11.60;10.30;;;16.10;61.30;;;;;;5054162;28;20171;-68
2022/12/01 06:26:31;;;;;;;11.02;9.52;;;16.20;61.10;;;;;;5054688;28;20179;-69
2022/12/01 06:28:57;;;;;;;11.93;10.13;;;16.30;60.80;;;;;;5054774;28;20174;-69
2022/12/01 06:31:22;;;;;;;11.43;9.88;;;16.40;60.70;;;;;;5054180;28;20253;-70
2022/12/01 06:33:48;;;;;;;10.77;9.68;;;16.50;60.40;;;;;;5054340;28;20172;-69
2022/12/01 06:36:13;;;;;;;10.88;9.45;;;16.60;60.30;;;;;;5054511;28;20171;-69
2022/12/01 06:38:39;;;;;;;10.80;9.70;;;16.70;60.00;;;;;;5053605;28;20179;-69
2022/12/01 06:41:05;;;;;;;11.77;9.52;;;16.70;59.80;;;;;;5054487;28;20618;-69
2022/12/01 06:43:30;;;;;;;10.77;9.50;;;16.80;59.80;;;;;;5054468;28;20187;-68
2022/12/01 06:45:56;;;;;;;11.73;10.30;;;16.70;59.70;;;;;;5053731;28;20175;-68
2022/12/01 06:48:21;;;;;;;10.55;9.48;;;16.70;59.70;;;;;;5054156;28;20541;-68
2022/12/01 06:50:47;;;;;;;11.55;9.70;;;16.70;59.80;;;;;;5053125;28;20220;-68
2022/12/01 06:53:12;;;;;;;11.02;9.85;;;16.70;59.80;;;;;;5054471;28;20186;-69
2022/12/01 06:55:38;;;;;;;10.80;9.65;;;16.80;59.80;;;;;;5053997;28;20537;-69
2022/12/01 06:58:04;;;;;;;12.75;9.43;;;16.80;59.80;;;;;;5053668;28;20638;-68
2022/12/01 07:00:29;;;;;;;10.68;9.43;;;16.80;59.70;;;;;;5054266;28;20168;-68
2022/12/01 07:02:55;;;;;;;11.80;9.60;;;16.80;59.60;;;;;;5053833;28;20182;-68
2022/12/01 07:05:20;;;;;;;10.27;9.27;;;16.80;59.60;;;;;;5053312;28;20640;-69
2022/12/01 07:07:46;;;;;;;11.10;9.90;;;16.70;59.60;;;;;;5053885;28;20185;-69
2022/12/01 07:10:12;;;;;;;11.60;10.07;;;16.80;59.80;;;;;;5054058;28;20178;-69
2022/12/01 07:12:37;;;;;;;11.07;9.20;;;16.80;59.70;;;;;;5052722;28;20214;-69
2022/12/01 07:15:05;;;;;;;10.30;9.07;;;16.80;59.70;;;;;;5053789;28;20224;-68
2022/12/01 07:17:30;;;;;;;10.18;9.07;;;16.80;59.60;;;;;;5052551;28;20188;-69
2022/12/01 07:19:56;;;;;;;10.70;9.57;;;16.90;59.50;;;;;;5052886;28;20191;-69
2022/12/01 07:22:22;;;;;;;9.82;8.80;;;17.00;59.40;;;;;;5053673;28;20175;-69
2022/12/01 07:24:47;;;;;;;10.20;9.07;;;17.10;59.30;;;;;;5053254;28;20630;-69
2022/12/01 07:27:13;;;;;;;10.00;9.00;;;17.10;59.20;;;;;;5052864;28;20224;-69
2022/12/01 07:29:38;;;;;;;11.27;9.38;;;17.30;58.90;;;;;;5053379;28;20293;-70
2022/12/01 07:32:04;;;;;;;10.75;9.02;;;17.40;58.70;;;;;;5053320;28;20557;-69
2022/12/01 07:34:29;;;;;;;11.00;9.70;;;17.50;58.60;;;;;;5052715;28;20183;-69
2022/12/01 07:36:55;;;;;;;10.38;8.85;;;17.60;58.20;;;;;;5053070;28;20630;-69
2022/12/01 07:39:20;;;;;;;10.02;8.88;;;17.70;57.90;;;;;;5053485;28;20258;-69
2022/12/01 07:41:46;;;;;;;11.40;9.38;;;17.80;57.80;;;;;;5052491;28;20181;-69
2022/12/01 07:44:11;;;;;;;10.32;9.23;;;17.80;57.70;;;;;;5053451;28;20175;-68
2022/12/01 07:46:37;;;;;;;9.80;8.80;;;17.80;57.60;;;;;;5053003;28;20182;-68
2022/12/01 07:49:05;;;;;;;10.20;9.20;;;17.80;57.50;;;;;;5052786;28;20176;-69
2022/12/01 07:51:30;;;;;;;11.15;9.82;;;17.80;57.60;;;;;;5053299;28;20300;-69
2022/12/01 07:53:59;;;;;;;11.38;9.18;;;17.70;57.80;;;;;;5052524;28;20241;-69
2022/12/01 07:56:25;;;;;;;10.68;9.48;;;17.70;57.90;;;;;;5053093;28;20683;-69
2022/12/01 07:58:50;;;;;;;11.10;9.90;;;17.60;57.80;;;;;;5052734;28;20183;-69
2022/12/01 08:01:22;;;;;;;11.40;9.45;;;17.50;58.00;;;;;;5052392;28;20178;-69
2022/12/01 08:03:48;;;;;;;10.45;9.35;;;17.40;58.10;;;;;;5052459;28;20175;-69
2022/12/01 08:06:14;;;;;;;10.50;9.43;;;17.30;58.30;;;;;;5053030;28;20660;-69
2022/12/01 08:08:39;;;;;;;10.43;8.98;;;17.30;58.60;;;;;;5051997;28;20179;-69
2022/12/01 08:11:08;;;;;;;10.95;8.82;;;17.10;58.70;;;;;;5052857;28;20214;-69
2022/12/01 08:13:34;;;;;;;11.10;9.27;;;17.20;58.90;;;;;;5052733;28;20181;-69
2022/12/01 08:16:03;;;;;;;12.30;10.32;;;17.20;58.80;;;;;;5052105;28;20172;-69
2022/12/01 08:18:28;;;;;;;11.18;9.95;;;17.20;58.80;;;;;;5052838;28;20241;-70
2022/12/01 08:20:57;;;;;;;11.65;9.43;;;17.30;58.80;;;;;;5052743;28;20229;-69
2022/12/01 08:23:22;;;;;;;13.60;9.38;;;17.20;58.80;;;;;;5052201;28;20176;-69
2022/12/01 08:25:48;;;;;;;10.57;8.75;;;17.20;58.90;;;;;;5052392;28;20233;-70
2022/12/01 08:28:13;;;;;;;12.05;9.50;;;17.10;59.00;;;;;;5056108;28;20262;-67
2022/12/01 08:30:39;;;;;;;13.73;10.43;;;17.10;59.20;;;;;;5055694;28;20190;-66
2022/12/01 08:33:04;;;;;;;13.40;10.10;;;17.10;59.40;;;;;;5057018;28;20531;-66
2022/12/01 08:35:31;;;;;;;11.75;9.00;;;17.10;59.50;;;;;;5056800;28;20174;-64
2022/12/01 08:37:57;;;;;;;15.07;10.15;;;17.20;59.60;;;;;;5056076;28;20269;-68
2022/12/01 08:40:22;;;;;;;14.95;10.98;;;17.20;60.20;;;;;;5056682;28;20260;-67
2022/12/01 08:42:48;;;;;;;11.55;10.02;;;17.30;59.50;;;;;;5056169;28;20305;-67
2022/12/01 08:45:13;;;;;;;13.07;10.40;;;17.20;59.50;;;;;;5054667;28;20189;-67
2022/12/01 08:47:39;;;;;;;14.80;10.57;;;17.20;59.50;;;;;;5056484;28;20179;-66
2022/12/01 08:50:05;;;;;;;12.77;10.35;;;17.20;59.60;;;;;;5056724;28;20543;-66
2022/12/01 08:52:33;;;;;;;13.52;11.05;;;17.10;59.70;;;;;;5055549;28;20211;-67
2022/12/01 08:54:59;;;;;;;14.65;10.73;;;17.10;59.80;;;;;;5056423;28;20171;-67
2022/12/01 08:57:25;;;;;;;11.18;9.32;;;17.10;59.80;;;;;;5055590;28;20186;-67
2022/12/01 08:59:50;;;;;;;13.00;9.77;;;17.20;59.80;;;;;;5056125;28;20262;-66
2022/12/01 09:02:21;;;;;;;14.15;10.70;;;17.20;59.70;;;;;;5056516;28;20210;-67
2022/12/01 09:04:46;;;;;;;11.13;9.77;;;17.20;59.60;;;;;;5055519;28;20175;-67
2022/12/01 09:07:15;;;;;;;12.60;9.68;;;17.20;59.60;;;;;;5056420;28;20529;-67
2022/12/01 09:09:40;;;;;;;11.40;10.02;;;17.20;59.70;;;;;;5056011;28;20202;-67
2022/12/01 09:12:07;;;;;;;12.88;10.32;;;17.10;59.70;;;;;;5055334;28;20673;-67
2022/12/01 09:14:38;;;;;;;14.25;10.80;;;17.10;60.00;;;;;;5055728;28;20179;-67
2022/12/01 09:17:04;;;;;;;13.20;10.63;;;17.20;60.00;;;;;;5056385;28;20202;-67
2022/12/01 09:19:30;;;;;;;15.45;10.85;;;17.20;60.00;;;;;;5055270;28;20693;-67
2022/12/01 09:21:55;;;;;;;13.23;10.48;;;17.30;60.00;;;;;;5056050;28;20175;-67
2022/12/01 09:24:21;;;;;;;12.25;10.85;;;17.20;59.80;;;;;;5056055;28;20190;-67
2022/12/01 09:26:46;;;;;;;13.45;10.35;;;17.20;59.80;;;;;;5054799;28;20186;-67
2022/12/01 09:29:13;;;;;;;15.05;10.70;;;17.20;59.90;;;;;;5056307;28;20171;-66
2022/12/01 09:31:38;;;;;;;13.57;10.35;;;17.10;59.90;;;;;;5055617;28;20211;-67
2022/12/01 09:34:06;;;;;;;13.05;10.07;;;17.10;60.00;;;;;;5055211;28;20194;-67
2022/12/01 09:36:32;;;;;;;11.80;9.90;;;17.10;60.20;;;;;;5055529;28;20223;-67
2022/12/01 09:38:58;;;;;;;14.15;10.90;;;17.10;60.20;;;;;;5054757;28;20254;-67
2022/12/01 09:41:29;;;;;;;13.55;11.00;;;17.20;60.20;;;;;;5054885;28;20653;-67
2022/12/01 09:44:13;;;;;;;13.80;10.80;;;17.20;60.10;;;;;;5055483;28;20167;-67
2022/12/01 09:47:12;;;;;;;13.82;10.52;;;17.20;60.00;;;;;;5055192;28;20179;-67
2022/12/01 09:50:03;;;;;;;12.02;9.93;;;17.20;60.00;;;;;;5046881;28;20179;-66
2022/12/01 09:52:37;;;;;;;12.02;10.63;;;17.20;60.10;;;;;;5054222;28;20618;-67
2022/12/01 09:55:03;;;;;;;15.35;10.32;;;17.10;60.20;;;;;;5053705;28;20179;-67
2022/12/01 09:57:35;;;;;;;12.40;10.48;;;17.10;60.30;;;;;;5054148;28;20187;-66
2022/12/01 10:00:11;;;;;;;14.98;10.85;;;17.10;60.30;;;;;;5055451;28;20183;-67
2022/12/01 10:02:43;;;;;;;12.95;10.77;;;17.20;60.30;;;;;;5053075;28;20366;-67
2022/12/01 10:05:15;;;;;;;11.60;10.18;;;17.20;60.10;;;;;;5054187;28;20214;-67
2022/12/01 10:07:51;;;;;;;13.00;10.68;;;17.20;60.10;;;;;;5054257;28;20261;-67
2022/12/01 10:10:28;;;;;;;12.73;10.48;;;17.20;60.00;;;;;;5053852;28;20755;-67
2022/12/01 10:12:54;;;;;;;15.27;11.38;;;17.20;60.10;;;;;;5054889;28;20582;-67
2022/12/01 10:15:33;;;;;;;13.00;10.40;;;17.10;60.20;;;;;;5054284;28;20171;-67
2022/12/01 10:18:19;;;;;;;11.38;9.60;;;17.20;60.40;;;;;;5053782;28;20231;-67
2022/12/01 10:21:03;;;;;;;13.30;10.55;;;17.10;60.40;;;;;;5054668;28;20182;-67
2022/12/01 10:23:43;;;;;;;11.40;10.20;;;17.20;60.40;;;;;;5053069;28;20175;-66
2022/12/01 10:26:46;;;;;;;12.85;10.00;;;17.20;60.20;;;;;;5053819;28;20252;-67
2022/12/01 10:29:15;;;;;;;13.93;11.23;;;17.20;60.00;;;;;;5047567;28;20261;-67
2022/12/01 10:31:56;;;;;;;11.25;9.88;;;17.20;60.10;;;;;;5053384;28;20269;-67
2022/12/01 10:34:30;;;;;;;12.60;10.88;;;17.20;60.20;;;;;;5053602;28;20195;-67
2022/12/01 10:36:56;;;;;;;11.73;10.10;;;17.20;60.30;;;;;;5052622;28;20249;-67
2022/12/01 10:39:27;;;;;;;11.02;9.48;;;17.10;60.40;;;;;;5053415;28;20179;-67
2022/12/01 10:42:15;;;;;;;12.45;10.70;;;17.20;60.40;;;;;;5054239;28;20580;-67
2022/12/01 10:44:41;;;;;;;11.93;10.35;;;17.20;60.20;;;;;;5053767;28;20175;-67
2022/12/01 10:47:22;;;;;;;10.48;9.30;;;17.20;60.10;;;;;;5053349;28;20186;-67
2022/12/01 10:49:47;;;;;;;13.43;10.00;;;17.20;60.00;;;;;;5052377;28;20201;-68
2022/12/01 10:52:33;;;;;;;13.13;9.95;;;17.20;60.00;;;;;;5053869;28;20665;-67
2022/12/01 10:54:59;;;;;;;13.60;10.20;;;17.20;60.00;;;;;;5054393;28;20206;-67
2022/12/01 10:57:25;;;;;;;12.38;9.93;;;17.20;60.10;;;;;;5053371;28;20229;-67
2022/12/01 10:59:53;;;;;;;11.88;9.90;;;17.20;60.10;;;;;;5053891;28;20293;-67
2022/12/01 11:02:20;;;;;;;11.63;9.98;;;17.30;60.10;;;;;;5053951;28;20176;-67
2022/12/01 11:05:03;;;;;;;14.05;11.07;;;17.30;59.90;;;;;;5053048;28;20229;-67
2022/12/01 11:07:31;;;;;;;11.32;10.13;;;17.40;59.90;;;;;;5052694;28;20171;-68
2022/12/01 11:10:03;;;;;;;12.55;10.07;;;17.40;59.90;;;;;;5052889;28;20252;-67
2022/12/01 11:12:28;;;;;;;11.25;10.07;;;17.30;59.90;;;;;;5053191;28;20214;-67
2022/12/01 11:14:54;;;;;;;12.25;9.80;;;17.30;59.90;;;;;;5052306;28;20541;-68
2022/12/01 11:17:36;;;;;;;14.10;11.93;;;17.30;60.00;;;;;;5053789;28;20233;-67
2022/12/01 11:20:27;;;;;;;11.65;10.07;;;17.30;60.10;;;;;;5053049;28;20213;-67
2022/12/01 11:23:28;;;;;;;12.43;10.70;;;17.30;60.10;;;;;;5053491;28;20669;-67
2022/12/01 11:26:14;;;;;;;11.75;9.88;;;17.30;60.10;;;;;;5052576;28;20529;-67
2022/12/01 11:29:14;;;;;;;12.10;10.02;;;17.30;60.10;;;;;;5052457;28;20175;-67
2022/12/01 11:31:46;;;;;;;12.02;10.32;;;17.30;60.10;;;;;;5041084;28;20237;-67
2022/12/01 11:34:19;;;;;;;13.77;10.20;;;17.20;60.20;;;;;;5052926;28;20179;-67
2022/12/01 11:36:58;;;;;;;12.18;10.23;;;17.20;60.30;;;;;;5053548;28;20179;-67
2022/12/01 11:39:31;;;;;;;12.05;10.32;;;17.20;60.40;;;;;;5051692;28;20178;-67
2022/12/01 11:42:06;;;;;;;12.82;9.98;;;17.10;60.50;;;;;;5053440;28;20237;-67
2022/12/01 11:44:31;;;;;;;11.40;10.20;;;17.20;60.50;;;;;;5051812;28;20208;-67
2022/12/01 11:47:10;;;;;;;13.25;10.65;;;17.20;60.50;;;;;;5051558;28;20183;-67
2022/12/01 11:49:35;;;;;;;13.13;10.70;;;17.20;60.50;;;;;;5052945;28;20629;-67
2022/12/01 11:52:16;;;;;;;11.45;10.27;;;17.20;60.40;;;;;;5051945;28;20214;-67
2022/12/01 11:55:01;;;;;;;12.18;10.20;;;17.20;60.50;;;;;;5052307;28;20193;-67
2022/12/01 11:57:27;;;;;;;11.02;9.82;;;17.10;60.40;;;;;;5053469;28;20175;-67
2022/12/01 11:59:53;;;;;;;12.05;10.32;;;17.10;60.50;;;;;;5051811;28;20218;-67
2022/12/01 12:02:29;;;;;;;11.57;9.55;;;17.10;60.70;;;;;;5051963;28;20171;-67
2022/12/01 12:05:13;;;;;;;11.20;9.60;;;17.10;60.70;;;;;;5051586;28;20646;-67
2022/12/01 12:07:41;;;;;;;13.00;10.63;;;17.10;60.70;;;;;;5052218;28;20179;-68
2022/12/01 12:10:07;;;;;;;11.07;9.75;;;17.20;60.70;;;;;;5053122;28;20194;-67
2022/12/01 12:12:50;;;;;;;11.40;10.18;;;17.10;60.50;;;;;;5052348;28;20621;-67
2022/12/01 12:15:28;;;;;;;13.45;10.63;;;17.20;60.50;;;;;;5052157;28;20597;-68
2022/12/01 12:18:11;;;;;;;11.98;10.73;;;17.10;60.50;;;;;;5052322;28;20211;-67
2022/12/01 12:20:59;;;;;;;12.52;9.80;;;17.10;60.50;;;;;;5051640;28;20273;-67
2022/12/01 12:23:47;;;;;;;14.07;10.15;;;17.00;60.50;;;;;;5052180;28;20185;-67
2022/12/01 12:26:19;;;;;;;14.57;10.38;;;17.10;60.80;;;;;;5051628;28;20185;-65
2022/12/01 12:29:22;;;;;;;11.00;9.80;;;17.20;60.60;;;;;;5051744;28;20645;-66
2022/12/01 12:32:02;;;;;;;11.05;9.68;;;17.20;60.40;;;;;;5052447;28;20318;-66
2022/12/01 12:34:37;;;;;;;10.93;9.35;;;17.20;60.40;;;;;;5051398;28;20234;-66
2022/12/01 12:37:38;;;;;;;12.43;9.80;;;17.20;60.50;;;;;;5052908;28;20657;-66
2022/12/01 12:40:11;;;;;;;11.95;9.82;;;17.10;60.50;;;;;;5051487;28;20655;-68
2022/12/01 12:42:46;;;;;;;12.57;10.55;;;17.10;60.60;;;;;;5051707;28;20186;-68
2022/12/01 12:45:28;;;;;;;11.98;9.75;;;17.10;60.80;;;;;;5051568;28;20167;-67
2022/12/01 12:48:10;;;;;;;13.73;10.50;;;17.10;61.00;;;;;;5034759;28;20205;-68
2022/12/01 12:50:57;;;;;;;13.50;10.30;;;17.10;61.00;;;;;;5050520;28;20202;-69
2022/12/01 12:53:24;;;;;;;13.55;9.68;;;17.20;60.90;;;;;;5041109;28;20202;-68